createdAt,value
2023-02-15T00:01:51.049Z,98747.03
2023-02-15T00:04:20.400Z,98747.88
2023-02-15T00:06:46.945Z,98739.34
2023-02-15T00:09:14.108Z,98747.00
2023-02-15T00:11:41.276Z,98742.69
2023-02-15T00:14:13.145Z,98734.13
2023-02-15T00:16:41.144Z,98734.19
2023-02-15T00:19:08.762Z,98730.75
2023-02-15T00:21:36.698Z,98737.69
2023-02-15T00:24:05.526Z,98740.44
2023-02-15T00:26:32.107Z,98730.94
2023-02-15T00:29:02.311Z,98737.09
2023-02-15T00:31:31.888Z,98731.75
2023-02-15T00:34:28.390Z,98732.66
2023-02-15T00:36:57.766Z,98737.09
2023-02-15T00:39:25.360Z,98737.09
2023-02-15T00:41:51.922Z,98733.69
2023-02-15T00:44:18.685Z,98728.66
2023-02-15T00:46:45.279Z,98721.75
2023-02-15T00:49:14.608Z,98729.19
2023-02-15T00:51:41.178Z,98730.88
2023-02-15T00:54:08.267Z,98732.00
2023-02-15T00:56:37.111Z,98727.66
2023-02-15T00:59:06.102Z,98722.56
2023-02-15T01:01:32.750Z,98725.16
2023-02-15T01:03:59.362Z,98719.16
2023-02-15T01:06:25.962Z,98718.28
2023-02-15T01:08:52.551Z,98721.69
2023-02-15T01:11:24.025Z,98713.22
2023-02-15T01:13:52.837Z,98713.16
2023-02-15T01:16:19.910Z,98711.41
2023-02-15T01:18:46.726Z,98716.50
2023-02-15T01:21:18.784Z,98700.19
2023-02-15T01:23:45.627Z,98700.03
2023-02-15T01:26:12.450Z,98708.66
2023-02-15T01:28:39.323Z,98699.31
2023-02-15T01:31:08.011Z,98698.63
2023-02-15T01:33:35.423Z,98688.34
2023-02-15T01:36:02.438Z,98699.50
2023-02-15T01:38:29.091Z,98687.47
2023-02-15T01:41:16.031Z,98682.19
2023-02-15T01:43:44.730Z,98677.81
2023-02-15T01:46:13.917Z,98674.53
2023-02-15T01:48:46.258Z,98673.78
2023-02-15T01:51:13.928Z,98661.78
2023-02-15T01:53:49.343Z,98660.94
2023-02-15T01:56:23.328Z,98656.00
2023-02-15T01:58:51.891Z,98653.22
2023-02-15T02:01:19.624Z,98651.56
2023-02-15T02:04:05.295Z,98652.41
2023-02-15T02:06:33.516Z,98642.13
2023-02-15T02:09:00.268Z,98649.69
2023-02-15T02:11:26.839Z,98653.22
2023-02-15T02:13:58.582Z,98646.50
2023-02-15T02:16:51.350Z,98649.78
2023-02-15T02:19:32.931Z,98637.06
2023-02-15T02:22:24.880Z,98640.47
2023-02-15T02:25:06.061Z,98648.25
2023-02-15T02:27:56.568Z,98646.69
2023-02-15T02:31:01.387Z,98638.91
2023-02-15T02:33:49.295Z,98643.34
2023-02-15T02:36:36.671Z,98639.72
2023-02-15T02:39:24.493Z,98639.69
2023-02-15T02:42:22.515Z,98633.88
2023-02-15T02:44:54.528Z,98639.84
2023-02-15T02:47:27.385Z,98623.66
2023-02-15T02:50:01.412Z,98627.88
2023-02-15T02:52:46.752Z,98628.78
2023-02-15T02:55:40.647Z,98626.84
2023-02-15T02:58:16.215Z,98620.81
2023-02-15T03:00:49.616Z,98626.16
2023-02-15T03:03:30.216Z,98622.03
2023-02-15T03:06:03.646Z,98620.19
2023-02-15T03:08:37.165Z,98612.47
2023-02-15T03:11:05.096Z,98603.81
2023-02-15T03:13:35.824Z,98604.91
2023-02-15T03:16:24.759Z,98599.59
2023-02-15T03:18:58.118Z,98600.53
2023-02-15T03:21:40.095Z,98600.38
2023-02-15T03:24:26.690Z,98601.81
2023-02-15T03:26:55.604Z,98605.34
2023-02-15T03:29:28.636Z,98612.41
2023-02-15T03:32:00.539Z,98615.88
2023-02-15T03:34:27.675Z,98612.28
2023-02-15T03:37:03.225Z,98615.75
2023-02-15T03:39:35.977Z,98620.94
2023-02-15T03:42:07.945Z,98617.63
2023-02-15T03:44:43.585Z,98621.97
2023-02-15T03:47:19.123Z,98622.69
2023-02-15T03:49:54.485Z,98626.19
2023-02-15T03:52:23.430Z,98627.91
2023-02-15T03:54:53.593Z,98621.13
2023-02-15T03:57:44.727Z,98619.34
2023-02-15T04:00:43.504Z,98618.41
2023-02-15T04:03:16.272Z,98614.34
2023-02-15T04:05:44.874Z,98613.38
2023-02-15T04:08:14.920Z,98616.06
2023-02-15T04:10:53.585Z,98616.13
2023-02-15T04:13:24.946Z,98607.47
2023-02-15T04:16:04.962Z,98604.72
2023-02-15T04:19:01.780Z,98609.06
2023-02-15T04:21:49.772Z,98614.28
2023-02-15T04:24:35.510Z,98620.47
2023-02-15T04:27:03.351Z,98612.59
2023-02-15T04:29:30.118Z,98618.81
2023-02-15T04:31:58.473Z,98613.84
2023-02-15T04:34:25.486Z,98612.97
2023-02-15T04:36:52.054Z,98616.44
2023-02-15T04:39:19.938Z,98619.09
2023-02-15T04:41:49.715Z,98608.72
2023-02-15T04:44:16.258Z,98610.34
2023-02-15T04:46:42.748Z,98599.97
2023-02-15T04:49:09.667Z,98601.75
2023-02-15T04:51:36.165Z,98594.88
2023-02-15T04:54:02.650Z,98595.66
2023-02-15T04:56:30.969Z,98601.81
2023-02-15T04:58:57.709Z,98608.66
2023-02-15T05:01:26.692Z,98609.66
2023-02-15T05:03:53.224Z,98611.16
2023-02-15T05:06:19.690Z,98620.47
2023-02-15T05:08:46.455Z,98622.19
2023-02-15T05:11:12.931Z,98628.25
2023-02-15T05:13:39.380Z,98622.19
2023-02-15T05:16:05.869Z,98623.91
2023-02-15T05:18:32.406Z,98631.75
2023-02-15T05:20:58.860Z,98629.97
2023-02-15T05:23:25.710Z,98630.75
2023-02-15T05:26:13.244Z,98633.53
2023-02-15T05:28:39.744Z,98635.09
2023-02-15T05:31:06.432Z,98633.38
2023-02-15T05:33:33.641Z,98635.16
2023-02-15T05:36:02.177Z,98634.28
2023-02-15T05:38:29.099Z,98633.44
2023-02-15T05:40:55.703Z,98635.88
2023-02-15T05:43:22.308Z,98635.94
2023-02-15T05:45:57.277Z,98638.34
2023-02-15T05:48:26.058Z,98646.25
2023-02-15T05:51:10.047Z,98641.75
2023-02-15T05:53:39.085Z,98654.53
2023-02-15T05:56:09.303Z,98655.53
2023-02-15T05:58:40.502Z,98671.75
2023-02-15T06:01:16.336Z,98673.72
2023-02-15T06:03:43.015Z,98673.00
2023-02-15T06:06:09.975Z,98675.53
2023-02-15T06:08:37.750Z,98678.81
2023-02-15T06:11:04.858Z,98684.94
2023-02-15T06:13:32.228Z,98680.66
2023-02-15T06:15:58.866Z,98686.66
2023-02-15T06:18:25.342Z,98678.97
2023-02-15T06:20:51.830Z,98678.91
2023-02-15T06:23:20.958Z,98683.31
2023-02-15T06:25:47.503Z,98676.34
2023-02-15T06:28:14.717Z,98682.06
2023-02-15T06:30:41.477Z,98685.69
2023-02-15T06:33:07.999Z,98684.00
2023-02-15T06:35:34.529Z,98688.28
2023-02-15T06:38:01.038Z,98695.09
2023-02-15T06:40:27.514Z,98683.16
2023-02-15T06:42:53.992Z,98690.75
2023-02-15T06:45:21.428Z,98678.66
2023-02-15T06:47:50.699Z,98683.63
2023-02-15T06:50:17.213Z,98682.81
2023-02-15T06:52:43.763Z,98690.75
2023-02-15T06:55:12.492Z,98687.19
2023-02-15T06:57:38.982Z,98693.91
2023-02-15T07:00:06.988Z,98692.13
2023-02-15T07:02:33.476Z,98697.38
2023-02-15T07:05:03.698Z,98696.47
2023-02-15T07:07:30.288Z,98690.50
2023-02-15T07:09:56.819Z,98690.53
2023-02-15T07:12:41.910Z,98693.13
2023-02-15T07:15:14.072Z,98688.69
2023-02-15T07:17:40.594Z,98685.41
2023-02-15T07:20:15.960Z,98687.25
2023-02-15T07:22:42.556Z,98682.16
2023-02-15T07:25:10.749Z,98680.34
2023-02-15T07:27:37.748Z,98680.50
2023-02-15T07:30:06.521Z,98683.81
2023-02-15T07:32:33.803Z,98679.56
2023-02-15T07:35:03.372Z,98681.22
2023-02-15T07:37:29.878Z,98681.13
2023-02-15T07:39:56.357Z,98683.84
2023-02-15T07:42:25.264Z,98684.75
2023-02-15T07:44:51.863Z,98689.78
2023-02-15T07:47:18.381Z,98690.59
2023-02-15T07:49:46.268Z,98694.84
2023-02-15T07:52:12.791Z,98693.03
2023-02-15T07:54:39.321Z,98687.88
2023-02-15T07:57:05.922Z,98681.91
2023-02-15T07:59:34.568Z,98680.22
2023-02-15T08:02:01.081Z,98688.09
2023-02-15T08:04:30.560Z,98688.81
2023-02-15T08:06:57.089Z,98688.00
2023-02-15T08:09:25.908Z,98687.97
2023-02-15T08:11:52.373Z,98694.75
2023-02-15T08:14:21.301Z,98691.34
2023-02-15T08:16:50.453Z,98691.31
2023-02-15T08:19:33.158Z,98681.22
2023-02-15T08:22:02.312Z,98684.44
2023-02-15T08:24:35.259Z,98679.19
2023-02-15T08:27:06.019Z,98679.16
2023-02-15T08:29:33.530Z,98683.50
2023-02-15T08:32:04.309Z,98688.47
2023-02-15T08:34:33.701Z,98690.44
2023-02-15T08:37:00.386Z,98679.22
2023-02-15T08:39:27.044Z,98681.56
2023-02-15T08:41:53.546Z,98683.56
2023-02-15T08:44:23.436Z,98686.94
2023-02-15T08:46:50.627Z,98681.84
2023-02-15T08:49:22.280Z,98687.09
2023-02-15T08:51:50.046Z,98690.31
2023-02-15T08:54:19.148Z,98679.75
2023-02-15T08:56:46.668Z,98683.94
2023-02-15T08:59:18.752Z,98678.91
2023-02-15T09:01:46.198Z,98683.22
2023-02-15T09:04:14.045Z,98686.75
2023-02-15T09:06:42.256Z,98673.84
2023-02-15T09:09:12.135Z,98675.50
2023-02-15T09:11:44.252Z,98674.56
2023-02-15T09:14:16.633Z,98674.56
2023-02-15T09:16:51.899Z,98679.53
2023-02-15T09:19:20.289Z,98679.69
2023-02-15T09:21:47.255Z,98676.22
2023-02-15T09:24:16.232Z,98679.63
2023-02-15T09:26:45.247Z,98681.28
2023-02-15T09:29:15.312Z,98679.81
2023-02-15T09:31:45.373Z,98678.97
2023-02-15T09:34:14.573Z,98674.41
2023-02-15T09:36:41.976Z,98671.50
2023-02-15T09:39:12.090Z,98674.06
2023-02-15T09:42:10.630Z,98677.63
2023-02-15T09:44:55.440Z,98669.59
2023-02-15T09:47:39.551Z,98673.31
2023-02-15T09:50:24.390Z,98667.19
2023-02-15T09:53:30.911Z,98668.22
2023-02-15T09:56:11.116Z,98669.88
2023-02-15T09:58:58.820Z,98668.53
2023-02-15T10:01:51.928Z,98670.28
2023-02-15T10:04:45.374Z,98666.69
2023-02-15T10:07:33.371Z,98669.75
2023-02-15T10:10:05.179Z,98664.47
2023-02-15T10:12:50.409Z,98672.00
2023-02-15T10:15:46.434Z,98670.66
2023-02-15T10:18:23.750Z,98657.56
2023-02-15T10:21:04.248Z,98656.81
2023-02-15T10:23:49.876Z,98658.34
2023-02-15T10:26:20.592Z,98660.00
2023-02-15T10:28:51.323Z,98656.44
2023-02-15T10:31:34.026Z,98658.03
2023-02-15T10:34:28.057Z,98653.66
2023-02-15T10:37:16.222Z,98647.72
2023-02-15T10:40:04.281Z,98642.41
2023-02-15T10:42:37.787Z,98641.59
2023-02-15T10:45:25.018Z,98635.31
2023-02-15T10:48:06.859Z,98635.44
2023-02-15T10:50:52.478Z,98633.47
2023-02-15T10:53:37.550Z,98637.00
2023-02-15T10:56:04.021Z,98622.16
2023-02-15T10:58:48.564Z,98622.94
2023-02-15T11:01:45.458Z,98623.63
2023-02-15T11:04:18.170Z,98619.94
2023-02-15T11:06:53.004Z,98619.84
2023-02-15T11:09:23.308Z,98622.75
2023-02-15T11:11:53.768Z,98623.38
2023-02-15T11:14:32.764Z,98623.94
2023-02-15T11:17:08.065Z,98620.06
2023-02-15T11:19:42.733Z,98619.97
2023-02-15T11:22:11.230Z,98610.59
2023-02-15T11:24:46.502Z,98602.47
2023-02-15T11:27:22.259Z,98598.81
2023-02-15T11:29:59.567Z,98592.28
2023-02-15T11:32:31.712Z,98589.69
2023-02-15T11:35:07.311Z,98599.63
2023-02-15T11:37:43.417Z,98593.06
2023-02-15T11:40:27.663Z,98597.00
2023-02-15T11:42:58.359Z,98596.16
2023-02-15T11:45:27.832Z,98589.94
2023-02-15T11:47:55.837Z,98589.22
2023-02-15T11:50:28.448Z,98588.41
2023-02-15T11:53:05.489Z,98589.59
2023-02-15T11:55:32.258Z,98578.03
2023-02-15T11:58:08.101Z,98594.06
2023-02-15T12:00:44.612Z,98582.16
2023-02-15T12:03:18.968Z,98576.94
2023-02-15T12:05:48.579Z,98571.09
2023-02-15T12:08:17.371Z,98559.97
2023-02-15T12:10:48.946Z,98564.31
2023-02-15T12:13:20.864Z,98561.75
2023-02-15T12:15:53.239Z,98558.91
2023-02-15T12:18:31.852Z,98564.75
2023-02-15T12:21:06.493Z,98566.53
2023-02-15T12:23:33.984Z,98558.00
2023-02-15T12:26:01.036Z,98561.47
2023-02-15T12:28:35.386Z,98550.00
2023-02-15T12:31:19.343Z,98550.19
2023-02-15T12:33:46.989Z,98542.75
2023-02-15T12:36:19.565Z,98541.72
2023-02-15T12:39:05.337Z,98537.28
2023-02-15T12:41:31.864Z,98540.53
2023-02-15T12:44:21.697Z,98538.28
2023-02-15T12:47:05.926Z,98534.19
2023-02-15T12:49:39.765Z,98534.09
2023-02-15T12:52:24.757Z,98530.22
2023-02-15T12:54:52.002Z,98522.31
2023-02-15T12:57:27.612Z,98524.22
2023-02-15T13:00:00.251Z,98529.41
2023-02-15T13:02:28.976Z,98525.56
2023-02-15T13:04:57.590Z,98518.84
2023-02-15T13:07:30.643Z,98510.69
2023-02-15T13:09:57.311Z,98510.34
2023-02-15T13:12:33.034Z,98506.81
2023-02-15T13:15:03.399Z,98502.56
2023-02-15T13:17:34.832Z,98503.03
2023-02-15T13:20:23.826Z,98489.38
2023-02-15T13:22:53.659Z,98496.59
2023-02-15T13:25:23.712Z,98487.38
2023-02-15T13:27:54.139Z,98487.06
2023-02-15T13:30:36.198Z,98478.38
2023-02-15T13:33:21.070Z,98468.41
2023-02-15T13:36:13.805Z,98466.66
2023-02-15T13:38:52.994Z,98472.16
2023-02-15T13:41:57.114Z,98469.00
2023-02-15T13:44:48.647Z,98471.13
2023-02-15T13:47:36.626Z,98465.78
2023-02-15T13:50:28.534Z,98466.84
2023-02-15T13:53:26.564Z,98470.59
2023-02-15T13:55:56.627Z,98463.56
2023-02-15T13:59:02.174Z,98462.78
2023-02-15T14:01:54.842Z,98465.47
2023-02-15T14:04:36.779Z,98455.13
2023-02-15T14:07:23.652Z,98460.31
2023-02-15T14:10:19.390Z,98453.91
2023-02-15T14:13:17.452Z,98455.31
2023-02-15T14:15:46.182Z,98450.66
2023-02-15T14:18:28.398Z,98451.50
2023-02-15T14:21:09.776Z,98446.75
2023-02-15T14:23:45.251Z,98444.59
2023-02-15T14:26:47.905Z,98451.75
2023-02-15T14:29:25.682Z,98433.66
2023-02-15T14:32:09.589Z,98430.06
2023-02-15T14:34:58.171Z,98438.47
2023-02-15T14:37:37.394Z,98441.56
2023-02-15T14:40:44.858Z,98441.69
2023-02-15T14:43:23.650Z,98442.28
2023-02-15T14:46:00.096Z,98438.94
2023-02-15T14:48:33.306Z,98441.72
2023-02-15T14:51:00.592Z,98433.84
2023-02-15T14:53:38.496Z,98439.19
2023-02-15T14:56:10.971Z,98437.50
2023-02-15T14:58:39.005Z,98431.91
2023-02-15T15:01:11.480Z,98434.19
2023-02-15T15:03:49.771Z,98433.41
2023-02-15T15:06:32.796Z,98437.03
2023-02-15T15:09:28.247Z,98433.03
2023-02-15T15:11:56.429Z,98444.03
2023-02-15T15:14:35.298Z,98428.28
2023-02-15T15:17:04.796Z,98430.16
2023-02-15T15:19:54.008Z,98428.59
2023-02-15T15:22:29.548Z,98430.13
2023-02-15T15:25:01.460Z,98428.53
2023-02-15T15:27:44.612Z,98432.25
2023-02-15T15:30:14.327Z,98439.22
2023-02-15T15:33:00.090Z,98440.78
2023-02-15T15:36:04.338Z,98433.28
2023-02-15T15:39:07.042Z,98424.91
2023-02-15T15:41:39.609Z,98415.72
2023-02-15T15:44:31.045Z,98425.09
2023-02-15T15:47:27.590Z,98429.22
2023-02-15T15:50:00.727Z,98426.03
2023-02-15T15:52:29.665Z,98432.03
2023-02-15T15:55:06.172Z,98428.78
2023-02-15T15:57:42.394Z,98421.69
2023-02-15T16:00:52.772Z,98431.47
2023-02-15T16:03:27.739Z,98425.41
2023-02-15T16:06:01.112Z,98429.56
2023-02-15T16:08:33.564Z,98428.13
2023-02-15T16:11:12.245Z,98431.53
2023-02-15T16:13:42.043Z,98436.53
2023-02-15T16:16:08.829Z,98438.34
2023-02-15T16:18:39.857Z,98436.84
2023-02-15T16:21:06.419Z,98436.00
2023-02-15T16:23:35.721Z,98436.75
2023-02-15T16:26:20.423Z,98447.78
2023-02-15T16:28:52.702Z,98447.13
2023-02-15T16:31:20.129Z,98451.78
2023-02-15T16:33:47.430Z,98454.59
2023-02-15T16:36:28.263Z,98451.13
2023-02-15T16:38:57.926Z,98446.72
2023-02-15T16:41:29.548Z,98453.97
2023-02-15T16:44:00.748Z,98453.16
2023-02-15T16:46:47.515Z,98443.50
2023-02-15T16:49:26.549Z,98449.69
2023-02-15T16:52:08.961Z,98449.38
2023-02-15T16:54:36.485Z,98458.75
2023-02-15T16:57:03.289Z,98451.19
2023-02-15T16:59:32.646Z,98452.97
2023-02-15T17:01:59.251Z,98453.88
2023-02-15T17:04:31.195Z,98448.91
2023-02-15T17:07:01.047Z,98449.75
2023-02-15T17:09:27.545Z,98434.16
2023-02-15T17:11:54.384Z,98450.34
2023-02-15T17:14:31.953Z,98447.09
2023-02-15T17:17:29.942Z,98451.19
2023-02-15T17:19:56.596Z,98452.78
2023-02-15T17:22:30.497Z,98458.13
2023-02-15T17:25:04.676Z,98453.78
2023-02-15T17:27:34.054Z,98453.06
2023-02-15T17:30:03.557Z,98457.53
2023-02-15T17:32:32.509Z,98451.56
2023-02-15T17:35:21.309Z,98454.78
2023-02-15T17:37:49.602Z,98459.84
2023-02-15T17:40:23.953Z,98465.09
2023-02-15T17:42:50.553Z,98472.41
2023-02-15T17:45:17.461Z,98470.19
2023-02-15T17:47:48.517Z,98471.97
2023-02-15T17:50:23.647Z,98487.63
2023-02-15T17:52:52.142Z,98478.94
2023-02-15T17:55:41.531Z,98475.41
2023-02-15T17:58:11.653Z,98473.84
2023-02-15T18:01:01.747Z,98483.38
2023-02-15T18:04:15.012Z,98493.69
2023-02-15T18:07:01.599Z,98486.81
2023-02-15T18:09:46.987Z,98489.53
2023-02-15T18:12:21.085Z,98487.69
2023-02-15T18:14:47.682Z,98481.09
2023-02-15T18:17:16.032Z,98480.91
2023-02-15T18:19:44.564Z,98478.41
2023-02-15T18:22:15.892Z,98480.09
2023-02-15T18:24:43.171Z,98474.16
2023-02-15T18:27:12.395Z,98477.53
2023-02-15T18:29:38.927Z,98466.31
2023-02-15T18:32:09.667Z,98460.13
2023-02-15T18:34:41.680Z,98463.69
2023-02-15T18:37:15.626Z,98458.16
2023-02-15T18:39:54.300Z,98460.09
2023-02-15T18:42:27.337Z,98468.00
2023-02-15T18:44:57.945Z,98467.28
2023-02-15T18:47:24.682Z,98476.88
2023-02-15T18:49:51.552Z,98471.16
2023-02-15T18:52:21.781Z,98473.53
2023-02-15T18:54:53.277Z,98470.16
2023-02-15T18:57:20.363Z,98468.34
2023-02-15T18:59:46.871Z,98470.97
2023-02-15T19:02:15.383Z,98476.78
2023-02-15T19:04:41.872Z,98482.94
2023-02-15T19:07:26.807Z,98476.69
2023-02-15T19:09:58.741Z,98487.94
2023-02-15T19:12:26.003Z,98479.19
2023-02-15T19:14:52.983Z,98476.69
2023-02-15T19:17:21.997Z,98482.69
2023-02-15T19:19:50.060Z,98477.56
2023-02-15T19:22:27.955Z,98479.59
2023-02-15T19:24:57.891Z,98469.50
2023-02-15T19:27:35.785Z,98474.47
2023-02-15T19:30:08.074Z,98472.56
2023-02-15T19:32:34.629Z,98469.13
2023-02-15T19:35:01.126Z,98475.38
2023-02-15T19:37:42.746Z,98473.41
2023-02-15T19:40:20.189Z,98470.75
2023-02-15T19:42:47.020Z,98481.22
2023-02-15T19:45:17.666Z,98482.91
2023-02-15T19:47:44.477Z,98488.88
2023-02-15T19:50:16.141Z,98495.91
2023-02-15T19:52:43.950Z,98494.84
2023-02-15T19:55:29.636Z,98503.34
2023-02-15T19:57:58.203Z,98500.91
2023-02-15T20:00:26.230Z,98501.09
2023-02-15T20:02:53.747Z,98501.81
2023-02-15T20:05:21.326Z,98498.47
2023-02-15T20:07:51.974Z,98507.09
2023-02-15T20:10:24.668Z,98507.00
2023-02-15T20:12:51.140Z,98494.94
2023-02-15T20:15:22.684Z,98497.03
2023-02-15T20:17:49.926Z,98493.56
2023-02-15T20:20:17.028Z,98500.72
2023-02-15T20:22:45.965Z,98492.19
2023-02-15T20:25:17.769Z,98495.59
2023-02-15T20:27:44.313Z,98487.88
2023-02-15T20:30:16.986Z,98486.31
2023-02-15T20:32:43.817Z,98481.31
2023-02-15T20:35:15.341Z,98475.94
2023-02-15T20:37:42.022Z,98479.38
2023-02-15T20:40:18.911Z,98476.25
2023-02-15T20:42:45.644Z,98476.03
2023-02-15T20:45:23.617Z,98475.94
2023-02-15T20:47:50.979Z,98468.34
2023-02-15T20:50:20.111Z,98464.75
2023-02-15T20:52:48.552Z,98474.03
2023-02-15T20:55:18.360Z,98474.22
2023-02-15T20:57:45.698Z,98480.47
2023-02-15T21:00:19.050Z,98481.31
2023-02-15T21:02:54.159Z,98476.94
2023-02-15T21:05:23.944Z,98479.56
2023-02-15T21:07:51.624Z,98470.19
2023-02-15T21:10:21.206Z,98484.56
2023-02-15T21:12:49.209Z,98482.06
2023-02-15T21:15:40.090Z,98481.16
2023-02-15T21:18:12.691Z,98478.75
2023-02-15T21:20:45.599Z,98476.16
2023-02-15T21:23:14.490Z,98471.06
2023-02-15T21:25:41.260Z,98467.72
2023-02-15T21:28:19.212Z,98472.84
2023-02-15T21:30:46.541Z,98478.91
2023-02-15T21:33:13.048Z,98482.09
2023-02-15T21:35:39.779Z,98477.78
2023-02-15T21:38:09.610Z,98484.06
2023-02-15T21:40:38.372Z,98484.13
2023-02-15T21:43:32.008Z,98476.50
2023-02-15T21:46:17.008Z,98475.47
2023-02-15T21:48:46.462Z,98474.50
2023-02-15T21:51:31.699Z,98480.41
2023-02-15T21:53:58.524Z,98471.03
2023-02-15T21:56:27.475Z,98480.72
2023-02-15T21:58:53.964Z,98480.72
2023-02-15T22:01:22.691Z,98480.78
2023-02-15T22:03:49.573Z,98479.94
2023-02-15T22:06:16.313Z,98476.50
2023-02-15T22:08:43.315Z,98477.91
2023-02-15T22:11:17.757Z,98476.25
2023-02-15T22:13:45.257Z,98480.66
2023-02-15T22:16:16.592Z,98481.66
2023-02-15T22:18:43.706Z,98479.19
2023-02-15T22:21:11.372Z,98472.19
2023-02-15T22:23:40.264Z,98460.94
2023-02-15T22:26:12.003Z,98464.31
2023-02-15T22:28:40.225Z,98461.03
2023-02-15T22:31:12.044Z,98464.56
2023-02-15T22:33:39.276Z,98464.75
2023-02-15T22:36:06.113Z,98457.91
2023-02-15T22:38:32.665Z,98459.38
2023-02-15T22:41:04.354Z,98459.25
2023-02-15T22:43:40.263Z,98471.13
2023-02-15T22:46:27.099Z,98463.41
2023-02-15T22:48:53.869Z,98465.28
2023-02-15T22:51:23.374Z,98465.31
2023-02-15T22:53:52.254Z,98460.09
2023-02-15T22:56:26.492Z,98465.84
2023-02-15T22:59:01.142Z,98464.88
2023-02-15T23:01:32.868Z,98462.31
2023-02-15T23:04:03.064Z,98465.91
2023-02-15T23:06:30.114Z,98464.25
2023-02-15T23:08:57.091Z,98475.47
2023-02-15T23:11:23.613Z,98471.16
2023-02-15T23:13:50.150Z,98473.03
2023-02-15T23:16:18.281Z,98466.19
2023-02-15T23:18:46.884Z,98463.47
2023-02-15T23:21:21.353Z,98460.03
2023-02-15T23:23:51.773Z,98466.09
2023-02-15T23:26:29.742Z,98458.38
2023-02-15T23:28:59.082Z,98453.34
2023-02-15T23:31:31.432Z,98454.94
2023-02-15T23:34:00.672Z,98446.28
2023-02-15T23:36:27.087Z,98438.44
2023-02-15T23:38:55.543Z,98444.69
2023-02-15T23:41:27.339Z,98446.22
2023-02-15T23:44:00.392Z,98448.69
2023-02-15T23:46:39.964Z,98439.16
2023-02-15T23:49:14.890Z,98440.34
2023-02-15T23:51:47.980Z,98449.66
2023-02-15T23:54:15.999Z,98443.91
2023-02-15T23:56:45.157Z,98442.22
2023-02-15T23:59:28.400Z,98437.06
